Weather History for Stanton, MN

Change the Weather History Date:

Monday, October 28, 2013

  Actual Average (KLVN) Record (KLVN)
Temperature  
Mean Temperature 37 °F -  
Max Temperature 45 °F 52 °F 76 °F (1948)
Min Temperature 29 °F 33 °F 17 °F (1967)
Degree Days  
Heating Degree Days 28    
Moisture  
Dew Point 25 °F    
Average Humidity 65    
Maximum Humidity 85    
Minimum Humidity 41    
Precipitation  
Precipitation 0.00 in - - ()
Sea Level Pressure  
Sea Level Pressure 30.32 in    
Wind  
Wind Speed 8 mph (NE)    
Max Wind Speed 14 mph    
Max Gust Speed 21 mph    
Visibility 10 miles    
Events      
Averages and records for this station are not official NWS values.
T = Trace of Precipitation, MM = Missing Value Source: NWS Daily Summary

Daily Weather History Graph

Daily Weather History Graph

Search for Another Location

Airport:

Trip Planner

Search our weather history database for the weather conditions in past years. The results will help you decide how hot, cold, wet, or windy it might be!

Date:

Astronomy

Oct. 28, 2013 Rise Set
Actual Time 7:44 AM CDT 6:06 PM CDT
Civil Twilight 7:14 AM CDT 6:36 PM CDT
Nautical Twilight 6:40 AM CDT 7:10 PM CDT
Astronomical Twilight 6:06 AM CDT 7:44 PM CDT
Moon 1:24 AM CDT (10/28) 3:01 PM CDT (10/28)
Length of Visible Light 11h 22m
Length of Day
10h 22m
Waning Crescent, 34% of the Moon is Illuminated
Oct 28
Waning Crescent
Nov 3
New
Nov 9
First Quarter
Nov 17
Full
Nov 25
Last Quarter

Hourly Weather History & Observations

Time (CDT) Temp. Windchill Dew Point Humidity Pressure Visibility Wind Dir Wind Speed Gust Speed Precip Events Conditions
12:12 AM 40.1 °F 34.1 °F 31.1 °F 70% 30.10 in 10.0 mi NE 9.2 mph - N/A   Clear
12:32 AM 39.6 °F 34.0 °F 30.9 °F 71% 30.12 in 10.0 mi NE 8.1 mph - N/A   Clear
12:51 AM 39.2 °F 32.5 °F 31.1 °F 73% 30.13 in 10.0 mi NNE 10.4 mph - N/A   Clear
1:12 AM 37.8 °F 31.3 °F 30.9 °F 76% 30.14 in 10.0 mi NNE 9.2 mph - N/A   Clear
1:32 AM 37.8 °F 32.5 °F 30.7 °F 76% 30.15 in 10.0 mi NNE 6.9 mph - N/A   Clear
1:51 AM 37.0 °F 30.4 °F 30.2 °F 76% 30.15 in 10.0 mi NNE 9.2 mph - N/A   Clear
2:12 AM 37.0 °F 31.0 °F 30.2 °F 76% 30.16 in 10.0 mi NNE 8.1 mph - N/A   Clear
2:32 AM 37.4 °F 32.1 °F 30.4 °F 76% 30.17 in 10.0 mi NNE 6.9 mph - N/A   Clear
2:51 AM 36.7 °F 31.2 °F 30.2 °F 77% 30.18 in 10.0 mi NNE 6.9 mph - N/A   Clear
3:12 AM 35.6 °F 29.2 °F 29.8 °F 80% 30.19 in 10.0 mi NNE 8.1 mph - N/A   Clear
3:31 AM 35.8 °F 28.8 °F 30.2 °F 80% 30.20 in 10.0 mi NE 9.2 mph - N/A   Clear
3:52 AM 36.0 °F 30.3 °F 30.2 °F 80% 30.21 in 10.0 mi NE 6.9 mph - N/A   Scattered Clouds
4:12 AM 35.6 °F 29.9 °F 30.2 °F 81% 30.22 in 10.0 mi NNE 6.9 mph - N/A   Scattered Clouds
4:31 AM 35.8 °F 30.1 °F 30.2 °F 80% 30.23 in 10.0 mi NE 6.9 mph - N/A   Mostly Cloudy
4:52 AM 35.1 °F 27.4 °F 29.8 °F 81% 30.23 in 10.0 mi NE 10.4 mph - N/A   Scattered Clouds
5:12 AM 34.9 °F 27.1 °F 29.3 °F 80% 30.24 in 10.0 mi NE 10.4 mph - N/A   Scattered Clouds
5:31 AM 34.7 °F 28.1 °F 29.1 °F 80% 30.26 in 10.0 mi NE 8.1 mph 16.1 mph N/A   Clear
5:52 AM 34.7 °F 26.9 °F 28.4 °F 78% 30.26 in 10.0 mi NE 10.4 mph - N/A   Clear
6:12 AM 34.0 °F 27.2 °F 28.4 °F 80% 30.28 in 10.0 mi NE 8.1 mph - N/A   Clear
6:32 AM 33.8 °F 26.4 °F 28.4 °F 81% 30.30 in 10.0 mi NE 9.2 mph - N/A   Clear
6:52 AM 33.3 °F 25.7 °F 28.0 °F 81% 30.30 in 10.0 mi NE 9.2 mph - N/A   Clear
7:12 AM 33.3 °F 25.7 °F 27.9 °F 81% 30.32 in 10.0 mi NE 9.2 mph - N/A   Clear
7:32 AM 32.9 °F 25.9 °F 27.5 °F 81% 30.33 in 10.0 mi NE 8.1 mph - N/A   Clear
7:52 AM 32.2 °F 25.0 °F 27.3 °F 82% 30.34 in 10.0 mi NNE 8.1 mph - N/A   Clear
8:11 AM 32.0 °F 26.4 °F 27.9 °F 85% 30.35 in 10.0 mi NE 5.8 mph - N/A   Clear
8:32 AM 32.9 °F 25.9 °F 27.5 °F 81% 30.37 in 10.0 mi NE 8.1 mph - N/A   Clear
8:52 AM 33.6 °F 26.8 °F 27.9 °F 79% 30.38 in 10.0 mi NE 8.1 mph - N/A   Clear
9:12 AM 34.3 °F 27.0 °F 27.5 °F 76% 30.39 in 10.0 mi NE 9.2 mph - N/A   Clear
9:31 AM 35.1 °F 28.6 °F 27.3 °F 73% 30.39 in 10.0 mi ENE 8.1 mph - N/A   Scattered Clouds
9:52 AM 36.5 °F 27.8 °F 24.6 °F 62% 30.39 in 10.0 mi East 13.8 mph 20.7 mph N/A   Scattered Clouds
10:12 AM 37.0 °F 29.3 °F 24.3 °F 60% 30.39 in 10.0 mi ENE 11.5 mph 18.4 mph N/A   Clear
10:32 AM 38.1 °F 30.2 °F 24.1 °F 57% 30.40 in 10.0 mi ENE 12.7 mph 17.3 mph N/A   Clear
10:52 AM 39.2 °F 33.0 °F 23.7 °F 54% 30.40 in 10.0 mi ENE 9.2 mph 18.4 mph N/A   Clear
11:12 AM 39.7 °F 32.7 °F 23.2 °F 52% 30.39 in 10.0 mi East 11.5 mph 17.3 mph N/A   Clear
11:32 AM 40.5 °F 34.1 °F 23.2 °F 50% 30.39 in 10.0 mi East 10.4 mph - N/A   Clear
11:52 AM 41.0 °F 34.3 °F 23.2 °F 49% 30.39 in 10.0 mi ENE 11.5 mph - N/A   Clear
12:12 PM 41.7 °F 35.6 °F 23.0 °F 47% 30.39 in 10.0 mi ENE 10.4 mph 19.6 mph N/A   Clear
12:31 PM 42.1 °F 36.1 °F 23.2 °F 47% 30.38 in 10.0 mi ENE 10.4 mph 17.3 mph N/A   Clear
12:52 PM 42.6 °F 38.4 °F 23.4 °F 47% 30.39 in 10.0 mi East 6.9 mph - N/A   Clear
1:12 PM 43.2 °F 39.0 °F 23.5 °F 46% 30.39 in 10.0 mi East 6.9 mph - N/A   Clear
1:31 PM 43.5 °F 38.3 °F 23.2 °F 45% 30.38 in 10.0 mi NE 9.2 mph - N/A   Clear
1:52 PM 44.4 °F 40.0 °F 22.5 °F 42% 30.37 in 10.0 mi ENE 8.1 mph - N/A   Clear
2:12 PM 44.8 °F 41.6 °F 22.6 °F 42% 30.37 in 10.0 mi ENE 5.8 mph - N/A   Clear
2:31 PM 45.0 °F 41.2 °F 23.0 °F 42% 30.36 in 10.0 mi ENE 6.9 mph - N/A   Clear
2:52 PM 45.5 °F 40.8 °F 22.6 °F 41% 30.36 in 10.0 mi East 9.2 mph - N/A   Clear
3:11 PM 45.1 °F 42.0 °F 22.5 °F 41% 30.36 in 10.0 mi ENE 5.8 mph - N/A   Clear
3:32 PM 44.8 °F 39.4 °F 22.6 °F 42% 30.36 in 10.0 mi NE 10.4 mph - N/A   Clear
3:52 PM 43.9 °F 39.3 °F 22.5 °F 43% 30.36 in 10.0 mi NNE 8.1 mph - N/A   Clear
4:11 PM 44.1 °F 38.1 °F 22.3 °F 42% 30.36 in 10.0 mi NNE 11.5 mph - N/A   Clear
4:32 PM 43.5 °F 39.4 °F 22.3 °F 43% 30.36 in 10.0 mi NE 6.9 mph - N/A   Clear
4:52 PM 43.7 °F 38.6 °F 21.7 °F 42% 30.36 in 10.0 mi NNE 9.2 mph - N/A   Clear
5:11 PM 43.0 °F 37.2 °F 21.4 °F 42% 30.36 in 10.0 mi NE 10.4 mph - N/A   Clear
5:32 PM 41.7 °F 36.7 °F 21.4 °F 44% 30.35 in 10.0 mi NE 8.1 mph - N/A   Clear
5:52 PM 40.6 °F 35.4 °F 21.2 °F 46% 30.35 in 10.0 mi NE 8.1 mph - N/A   Clear
6:11 PM 39.0 °F 35.7 °F 21.7 °F 50% 30.35 in 10.0 mi ENE 4.6 mph - N/A   Clear
6:32 PM 37.4 °F 33.8 °F 21.7 °F 53% 30.36 in 10.0 mi NE 4.6 mph - N/A   Clear
6:51 PM 36.1 °F 32.3 °F 21.7 °F 56% 30.38 in 10.0 mi NE 4.6 mph - N/A   Clear
7:12 PM 35.1 °F 31.0 °F 21.7 °F 58% 30.38 in 10.0 mi NE 4.6 mph - N/A   Clear
7:32 PM 33.8 °F 30.8 °F 22.1 °F 62% 30.38 in 10.0 mi NE 3.5 mph - N/A   Clear
7:52 PM 32.0 °F 28.7 °F 22.1 °F 67% 30.38 in 10.0 mi NE 3.5 mph - N/A   Clear
8:12 PM 31.1 °F - 22.5 °F 70% 30.38 in 10.0 mi Calm Calm - N/A   Clear
8:32 PM 30.2 °F - 22.5 °F 73% 30.38 in 10.0 mi Calm Calm - N/A   Scattered Clouds
8:51 PM 32.0 °F 28.7 °F 22.8 °F 69% 30.38 in 10.0 mi ENE 3.5 mph - N/A   Mostly Cloudy
9:12 PM 32.0 °F 27.5 °F 22.8 °F 69% 30.37 in 10.0 mi ENE 4.6 mph - N/A   Overcast
9:32 PM 31.8 °F 27.3 °F 22.6 °F 69% 30.37 in 10.0 mi ENE 4.6 mph - N/A   Scattered Clouds
9:52 PM 31.1 °F 27.7 °F 22.3 °F 70% 30.38 in 10.0 mi NE 3.5 mph - N/A   Clear
10:11 PM 30.0 °F 26.5 °F 22.1 °F 72% 30.37 in 10.0 mi NNE 3.5 mph - N/A   Clear
10:32 PM 30.4 °F - 22.3 °F 72% 30.37 in 10.0 mi Calm Calm - N/A   Clear
10:52 PM 29.8 °F 26.3 °F 22.6 °F 75% 30.37 in 10.0 mi NE 3.5 mph - N/A   Scattered Clouds
11:12 PM 29.8 °F 26.3 °F 22.5 °F 74% 30.36 in 10.0 mi ENE 3.5 mph - N/A   Scattered Clouds
11:31 PM 29.1 °F - 22.5 °F 76% 30.37 in 10.0 mi Calm Calm - N/A   Clear
11:52 PM 30.6 °F 27.1 °F 22.1 °F 71% 30.38 in 10.0 mi NE 3.5 mph - N/A   Clear